createdAt,value
2023-05-08T00:02:08.717Z,9.78
2023-05-08T00:04:40.160Z,9.72
2023-05-08T00:07:11.590Z,9.63
2023-05-08T00:09:42.871Z,9.67
2023-05-08T00:12:14.173Z,9.61
2023-05-08T00:14:45.468Z,9.61
2023-05-08T00:17:16.780Z,9.56
2023-05-08T00:19:48.484Z,9.60
2023-05-08T00:22:19.854Z,9.57
2023-05-08T00:24:51.119Z,9.55
2023-05-08T00:27:22.397Z,9.52
2023-05-08T00:29:53.782Z,9.49
2023-05-08T00:32:25.142Z,9.48
2023-05-08T00:34:56.516Z,9.41
2023-05-08T00:37:27.880Z,9.46
2023-05-08T00:39:59.153Z,9.42
2023-05-08T00:42:30.554Z,9.38
2023-05-08T00:45:02.696Z,9.34
2023-05-08T00:47:34.517Z,9.21
2023-05-08T00:50:06.750Z,9.25
2023-05-08T00:52:38.705Z,9.09
2023-05-08T00:55:10.060Z,9.13
2023-05-08T00:57:41.495Z,9.15
2023-05-08T01:00:13.587Z,9.09
2023-05-08T01:02:46.511Z,8.95
2023-05-08T01:05:17.910Z,8.85
2023-05-08T01:07:49.221Z,8.94
2023-05-08T01:10:20.549Z,8.82
2023-05-08T01:13:08.637Z,8.87
2023-05-08T01:15:50.487Z,8.80
2023-05-08T01:19:01.423Z,8.75
2023-05-08T01:21:56.850Z,8.72
2023-05-08T01:24:50.193Z,8.67
2023-05-08T01:27:46.629Z,8.64
2023-05-08T01:30:42.628Z,8.63
2023-05-08T01:33:24.697Z,8.59
2023-05-08T01:36:00.621Z,8.59
2023-05-08T01:38:50.496Z,8.58
2023-05-08T01:41:28.151Z,8.51
2023-05-08T01:44:11.449Z,8.49
2023-05-08T01:46:49.851Z,8.48
2023-05-08T01:49:28.029Z,8.38
2023-05-08T01:52:07.209Z,8.41
2023-05-08T01:54:50.331Z,8.34
2023-05-08T01:57:26.643Z,8.33
2023-05-08T02:00:02.334Z,8.28
2023-05-08T02:02:34.776Z,8.28
2023-05-08T02:05:07.364Z,8.27
2023-05-08T02:07:40.086Z,8.24
2023-05-08T02:10:13.698Z,8.20
2023-05-08T02:12:46.959Z,8.19
2023-05-08T02:15:19.935Z,8.02
2023-05-08T02:17:54.377Z,8.11
2023-05-08T02:20:27.685Z,7.97
2023-05-08T02:22:59.446Z,7.96
2023-05-08T02:25:31.245Z,8.02
2023-05-08T02:28:03.375Z,7.99
2023-05-08T02:30:35.225Z,7.97
2023-05-08T02:33:10.665Z,7.95
2023-05-08T02:35:44.151Z,7.94
2023-05-08T02:38:16.852Z,7.93
2023-05-08T02:40:54.735Z,7.76
2023-05-08T02:43:26.628Z,7.85
2023-05-08T02:46:18.314Z,7.76
2023-05-08T02:49:03.539Z,7.77
2023-05-08T02:52:08.736Z,7.76
2023-05-08T02:55:02.356Z,7.75
2023-05-08T02:57:46.625Z,7.74
2023-05-08T03:00:22.374Z,7.72
2023-05-08T03:03:00.082Z,7.72
2023-05-08T03:05:38.237Z,7.69
2023-05-08T03:08:20.695Z,7.66
2023-05-08T03:10:55.485Z,7.58
2023-05-08T03:13:29.799Z,7.64
2023-05-08T03:16:05.248Z,7.62
2023-05-08T03:18:45.289Z,7.53
2023-05-08T03:21:21.425Z,7.57
2023-05-08T03:23:53.949Z,7.51
2023-05-08T03:26:25.554Z,7.48
2023-05-08T03:28:58.929Z,7.51
2023-05-08T03:31:32.852Z,7.47
2023-05-08T03:34:04.848Z,7.49
2023-05-08T03:36:36.227Z,7.40
2023-05-08T03:39:07.701Z,7.43
2023-05-08T03:41:39.250Z,7.44
2023-05-08T03:44:11.550Z,7.21
2023-05-08T03:46:43.049Z,7.44
2023-05-08T03:49:14.809Z,7.30
2023-05-08T03:51:46.980Z,7.32
2023-05-08T03:54:18.261Z,7.47
2023-05-08T03:56:49.550Z,7.43
2023-05-08T03:59:44.226Z,7.52
2023-05-08T04:02:42.450Z,7.55
2023-05-08T04:05:23.277Z,7.58
2023-05-08T04:08:15.078Z,7.62
2023-05-08T04:10:50.696Z,7.66
2023-05-08T04:13:32.148Z,7.62
2023-05-08T04:16:13.350Z,7.75
2023-05-08T04:18:47.811Z,7.82
2023-05-08T04:21:22.693Z,7.84
2023-05-08T04:23:57.594Z,7.94
2023-05-08T04:26:29.347Z,7.99
2023-05-08T04:29:01.119Z,8.05
2023-05-08T04:31:35.048Z,7.99
2023-05-08T04:34:08.712Z,8.12
2023-05-08T04:36:40.271Z,8.24
2023-05-08T04:39:11.706Z,8.19
2023-05-08T04:41:43.014Z,8.34
2023-05-08T04:44:14.570Z,8.27
2023-05-08T04:46:45.975Z,8.45
2023-05-08T04:49:17.256Z,8.40
2023-05-08T04:51:48.556Z,8.51
2023-05-08T04:54:19.841Z,8.52
2023-05-08T04:56:51.266Z,8.60
2023-05-08T04:59:22.623Z,8.67
2023-05-08T05:01:53.957Z,8.71
2023-05-08T05:04:25.347Z,8.76
2023-05-08T05:06:56.910Z,8.78
2023-05-08T05:09:28.459Z,8.82
2023-05-08T05:11:59.791Z,8.86
2023-05-08T05:14:31.518Z,8.93
2023-05-08T05:17:02.875Z,9.01
2023-05-08T05:19:34.330Z,9.06
2023-05-08T05:22:06.388Z,9.15
2023-05-08T05:24:39.466Z,9.20
2023-05-08T05:27:10.742Z,9.23
2023-05-08T05:29:42.131Z,9.37
2023-05-08T05:32:13.405Z,9.43
2023-05-08T05:34:44.686Z,9.49
2023-05-08T05:41:08.859Z,9.60
2023-05-08T05:43:40.110Z,9.70
2023-05-08T05:46:12.443Z,9.71
2023-05-08T05:48:43.714Z,9.94
2023-05-08T05:51:14.974Z,10.03
2023-05-08T05:53:46.269Z,10.08
2023-05-08T05:56:17.512Z,10.16
2023-05-08T05:58:48.944Z,10.24
2023-05-08T06:01:20.369Z,10.32
2023-05-08T06:03:51.691Z,10.43
2023-05-08T06:06:23.171Z,10.64
2023-05-08T06:08:54.423Z,12.07
2023-05-08T06:11:25.755Z,14.05
2023-05-08T06:13:57.119Z,15.48
2023-05-08T06:16:30.322Z,16.38
2023-05-08T06:19:01.650Z,16.81
2023-05-08T06:21:34.401Z,17.14
2023-05-08T06:24:06.813Z,16.95
2023-05-08T06:26:38.108Z,16.55
2023-05-08T06:29:09.400Z,16.16
2023-05-08T06:31:40.676Z,15.87
2023-05-08T06:34:12.047Z,15.51
2023-05-08T06:36:43.335Z,15.08
2023-05-08T06:39:14.660Z,14.83
2023-05-08T06:41:49.170Z,14.50
2023-05-08T06:44:20.452Z,14.38
2023-05-08T06:46:51.840Z,14.38
2023-05-08T06:49:23.248Z,14.28
2023-05-08T06:51:56.450Z,14.29
2023-05-08T06:54:29.083Z,14.21
2023-05-08T06:57:00.387Z,14.03
2023-05-08T06:59:31.657Z,13.92
2023-05-08T07:02:03.034Z,13.98
2023-05-08T07:04:34.522Z,14.14
2023-05-08T07:07:06.765Z,14.25
2023-05-08T07:09:38.055Z,14.46
2023-05-08T07:12:09.555Z,14.55
2023-05-08T07:14:40.832Z,14.36
2023-05-08T07:17:12.116Z,14.50
2023-05-08T07:19:43.428Z,14.52
2023-05-08T07:22:14.850Z,14.56
2023-05-08T07:24:46.440Z,14.77
2023-05-08T07:27:17.824Z,14.74
2023-05-08T07:29:49.080Z,14.76
2023-05-08T07:32:20.522Z,14.84
2023-05-08T07:34:51.832Z,14.99
2023-05-08T07:37:23.211Z,15.25
2023-05-08T07:39:54.563Z,15.51
2023-05-08T07:42:26.135Z,15.58
2023-05-08T07:44:57.451Z,15.79
2023-05-08T07:47:29.366Z,15.92
2023-05-08T07:50:01.319Z,16.03
2023-05-08T07:52:32.574Z,16.11
2023-05-08T07:55:04.237Z,16.16
2023-05-08T07:57:42.767Z,16.29
2023-05-08T08:00:15.506Z,16.45
2023-05-08T08:02:47.159Z,16.68
2023-05-08T08:05:19.169Z,16.86
2023-05-08T08:07:50.528Z,17.24
2023-05-08T08:10:21.824Z,17.62
2023-05-08T08:12:53.373Z,17.82
2023-05-08T08:15:24.703Z,18.01
2023-05-08T08:17:56.072Z,18.22
2023-05-08T08:20:27.522Z,18.37
2023-05-08T08:22:58.904Z,18.32
2023-05-08T08:25:30.405Z,18.29
2023-05-08T08:28:01.679Z,18.39
2023-05-08T08:30:33.006Z,18.69
2023-05-08T08:33:06.023Z,18.81
2023-05-08T08:35:38.083Z,18.71
2023-05-08T08:38:09.458Z,18.50
2023-05-08T08:40:41.567Z,18.35
2023-05-08T08:43:13.143Z,18.11
2023-05-08T08:45:44.464Z,17.89
2023-05-08T08:48:16.312Z,17.70
2023-05-08T08:50:52.906Z,17.64
2023-05-08T08:53:34.398Z,17.70
2023-05-08T08:56:08.629Z,17.73
2023-05-08T08:58:47.685Z,17.78
2023-05-08T09:01:20.448Z,18.11
2023-05-08T09:03:51.918Z,18.51
2023-05-08T09:06:23.519Z,18.58
2023-05-08T09:08:58.361Z,18.59
2023-05-08T09:11:29.995Z,18.52
2023-05-08T09:14:01.553Z,18.47
2023-05-08T09:16:33.151Z,18.61
2023-05-08T09:19:04.807Z,18.60
2023-05-08T09:21:36.488Z,18.53
2023-05-08T09:24:07.795Z,18.27
2023-05-08T09:26:41.391Z,17.91
2023-05-08T09:29:16.577Z,17.75
2023-05-08T09:31:50.115Z,17.71
2023-05-08T09:34:27.782Z,17.84
2023-05-08T09:37:05.192Z,17.99
2023-05-08T09:39:36.580Z,18.01
2023-05-08T09:42:07.892Z,18.25
2023-05-08T09:44:52.976Z,18.66
2023-05-08T09:47:25.127Z,18.93
2023-05-08T09:50:06.918Z,19.12
2023-05-08T09:52:39.248Z,18.95
2023-05-08T09:55:11.005Z,18.92
2023-05-08T09:57:59.791Z,18.77
2023-05-08T10:00:39.356Z,18.58
2023-05-08T10:03:10.892Z,18.47
2023-05-08T10:05:42.261Z,18.43
2023-05-08T10:08:20.904Z,18.43
2023-05-08T10:10:53.172Z,18.32
2023-05-08T10:13:26.099Z,18.16
2023-05-08T10:15:57.956Z,18.14
2023-05-08T10:18:35.138Z,18.21
2023-05-08T10:21:08.693Z,18.31
2023-05-08T10:23:42.278Z,18.44
2023-05-08T10:26:16.296Z,18.50
2023-05-08T10:28:59.719Z,18.64
2023-05-08T10:31:34.713Z,18.71
2023-05-08T10:34:06.226Z,19.03
2023-05-08T10:36:37.662Z,19.12
2023-05-08T10:39:09.866Z,19.42
2023-05-08T10:41:41.633Z,19.55
2023-05-08T10:44:13.216Z,19.59
2023-05-08T10:47:16.164Z,19.84
2023-05-08T10:50:25.913Z,19.88
2023-05-08T10:53:00.571Z,19.99
2023-05-08T10:55:37.187Z,20.10
2023-05-08T10:58:15.119Z,20.27
2023-05-08T11:00:49.493Z,20.48
2023-05-08T11:03:31.341Z,20.53
2023-05-08T11:06:03.899Z,20.54
2023-05-08T11:08:46.951Z,20.36
2023-05-08T11:11:28.139Z,20.29
2023-05-08T11:14:08.579Z,19.99
2023-05-08T11:16:55.364Z,19.65
2023-05-08T11:19:28.253Z,19.55
2023-05-08T11:22:16.048Z,19.50
2023-05-08T11:25:08.958Z,19.69
2023-05-08T11:31:52.045Z,20.40
2023-05-08T11:38:18.435Z,20.70
2023-05-08T11:40:56.324Z,21.01
2023-05-08T11:43:33.647Z,21.41
2023-05-08T11:46:13.908Z,21.56
2023-05-08T11:48:45.338Z,21.79
2023-05-08T11:51:19.075Z,21.71
2023-05-08T11:53:51.417Z,21.69
2023-05-08T11:56:23.037Z,21.57
2023-05-08T11:59:05.129Z,21.66
2023-05-08T12:01:36.960Z,21.71
2023-05-08T12:04:12.906Z,21.83
2023-05-08T12:06:44.800Z,21.99
2023-05-08T12:09:18.037Z,22.06
2023-05-08T12:11:56.944Z,21.99
2023-05-08T12:14:28.349Z,22.05
2023-05-08T12:17:02.361Z,21.86
2023-05-08T12:19:33.774Z,21.75
2023-05-08T12:22:05.268Z,21.48
2023-05-08T12:24:36.761Z,21.43
2023-05-08T12:27:08.861Z,21.24
2023-05-08T12:29:44.846Z,21.21
2023-05-08T12:32:16.445Z,21.06
2023-05-08T12:34:47.841Z,21.13
2023-05-08T12:37:28.244Z,21.37
2023-05-08T12:39:59.856Z,21.48
2023-05-08T12:42:49.019Z,21.90
2023-05-08T12:45:21.894Z,22.05
2023-05-08T12:47:58.381Z,22.08
2023-05-08T12:50:34.706Z,22.04
2023-05-08T12:53:08.149Z,22.22
2023-05-08T12:55:41.017Z,22.31
2023-05-08T12:58:15.021Z,22.44
2023-05-08T13:00:49.851Z,22.70
2023-05-08T13:03:26.383Z,22.77
2023-05-08T13:05:58.668Z,22.71
2023-05-08T13:08:37.744Z,22.41
2023-05-08T13:11:09.246Z,22.11
2023-05-08T13:13:40.696Z,21.83
2023-05-08T13:16:12.049Z,22.10
2023-05-08T13:18:43.418Z,22.41
2023-05-08T13:21:14.682Z,22.49
2023-05-08T13:23:46.015Z,22.55
2023-05-08T13:26:17.314Z,22.60
2023-05-08T13:28:48.565Z,22.67
2023-05-08T13:31:20.113Z,22.49
2023-05-08T13:33:51.449Z,22.63
2023-05-08T13:36:24.335Z,22.76
2023-05-08T13:38:57.148Z,22.91
2023-05-08T13:41:28.469Z,22.89
2023-05-08T13:43:59.800Z,22.95
2023-05-08T13:46:31.186Z,22.92
2023-05-08T13:49:02.627Z,22.99
2023-05-08T13:51:33.904Z,23.09
2023-05-08T13:54:05.360Z,23.06
2023-05-08T13:56:36.760Z,23.00
2023-05-08T13:59:08.311Z,23.27
2023-05-08T14:01:39.738Z,23.02
2023-05-08T14:04:11.309Z,23.11
2023-05-08T14:06:42.842Z,23.02
2023-05-08T14:09:14.186Z,22.95
2023-05-08T14:11:45.588Z,22.83
2023-05-08T14:14:16.942Z,22.77
2023-05-08T14:16:48.416Z,22.91
2023-05-08T14:19:19.693Z,23.02
2023-05-08T14:21:51.481Z,23.02
2023-05-08T14:24:22.798Z,23.01
2023-05-08T14:26:54.836Z,22.95
2023-05-08T14:29:26.217Z,22.97
2023-05-08T14:31:57.734Z,23.09
2023-05-08T14:34:29.279Z,23.12
2023-05-08T14:37:00.611Z,23.02
2023-05-08T14:39:31.963Z,23.02
2023-05-08T14:44:37.868Z,23.03
2023-05-08T14:47:09.409Z,22.93
2023-05-08T14:49:40.716Z,22.96
2023-05-08T14:52:12.135Z,22.90
2023-05-08T14:54:43.642Z,22.91
2023-05-08T14:57:15.082Z,22.96
2023-05-08T14:59:55.142Z,22.97
2023-05-08T15:02:26.897Z,23.07
2023-05-08T15:04:58.295Z,23.10
2023-05-08T15:07:29.580Z,23.10
2023-05-08T15:10:01.095Z,23.15
2023-05-08T15:12:32.656Z,23.00
2023-05-08T15:15:04.683Z,23.10
2023-05-08T15:17:36.567Z,23.09
2023-05-08T15:20:11.304Z,22.94
2023-05-08T15:22:42.704Z,22.92
2023-05-08T15:25:14.414Z,22.83
2023-05-08T15:27:52.372Z,22.82
2023-05-08T15:30:25.153Z,22.67
2023-05-08T15:32:56.531Z,22.74
2023-05-08T15:35:27.920Z,22.68
2023-05-08T15:38:04.419Z,22.63
2023-05-08T15:40:35.724Z,22.67
2023-05-08T15:43:07.286Z,22.67
2023-05-08T15:45:38.733Z,22.65
2023-05-08T15:48:10.151Z,22.61
2023-05-08T15:50:41.576Z,22.56
2023-05-08T15:53:13.092Z,22.43
2023-05-08T15:55:44.376Z,22.28
2023-05-08T15:58:15.881Z,22.21
2023-05-08T16:00:47.158Z,22.13
2023-05-08T16:03:18.783Z,21.95
2023-05-08T16:05:50.552Z,22.00
2023-05-08T16:08:21.978Z,21.95
2023-05-08T16:10:54.607Z,21.88
2023-05-08T16:13:26.005Z,21.90
2023-05-08T16:16:07.491Z,21.88
2023-05-08T16:18:39.833Z,21.81
2023-05-08T16:21:11.827Z,21.76
2023-05-08T16:23:43.188Z,21.71
2023-05-08T16:26:16.421Z,21.62
2023-05-08T16:28:47.916Z,21.56
2023-05-08T16:31:19.525Z,21.51
2023-05-08T16:33:50.913Z,21.45
2023-05-08T16:36:22.244Z,21.33
2023-05-08T16:38:53.929Z,21.29
2023-05-08T16:41:26.707Z,21.19
2023-05-08T16:43:58.108Z,21.16
2023-05-08T16:46:30.686Z,21.05
2023-05-08T16:49:02.245Z,21.04
2023-05-08T16:51:33.629Z,20.93
2023-05-08T16:54:05.073Z,20.96
2023-05-08T16:56:36.406Z,20.90
2023-05-08T16:59:07.857Z,20.84
2023-05-08T17:01:39.245Z,20.73
2023-05-08T17:04:11.804Z,20.73
2023-05-08T17:06:43.246Z,20.69
2023-05-08T17:09:14.655Z,20.63
2023-05-08T17:11:45.989Z,20.58
2023-05-08T17:14:18.523Z,20.50
2023-05-08T17:16:49.979Z,20.37
2023-05-08T17:19:21.299Z,20.41
2023-05-08T17:21:52.665Z,20.39
2023-05-08T17:24:24.010Z,20.35
2023-05-08T17:26:55.597Z,20.29
2023-05-08T17:29:26.912Z,20.24
2023-05-08T17:31:59.313Z,20.10
2023-05-08T17:34:39.005Z,20.13
2023-05-08T17:37:10.352Z,20.05
2023-05-08T17:39:41.837Z,20.00
2023-05-08T17:42:13.202Z,19.94
2023-05-08T17:44:44.547Z,19.81
2023-05-08T17:47:15.904Z,19.81
2023-05-08T17:49:47.189Z,19.73
2023-05-08T17:52:18.638Z,19.64
2023-05-08T17:54:52.849Z,19.57
2023-05-08T17:57:24.217Z,19.50
2023-05-08T17:59:55.788Z,19.43
2023-05-08T18:02:27.337Z,19.33
2023-05-08T18:04:58.682Z,19.25
2023-05-08T18:07:30.025Z,19.16
2023-05-08T18:10:01.420Z,19.07
2023-05-08T18:12:32.789Z,18.91
2023-05-08T18:15:07.943Z,18.88
2023-05-08T18:17:39.365Z,18.63
2023-05-08T18:20:11.341Z,18.65
2023-05-08T18:22:43.922Z,18.54
2023-05-08T18:25:15.536Z,18.41
2023-05-08T18:27:48.570Z,18.28
2023-05-08T18:30:19.988Z,18.18
2023-05-08T18:32:53.126Z,18.08
2023-05-08T18:35:24.459Z,17.96
2023-05-08T18:37:55.738Z,17.85
2023-05-08T18:40:27.149Z,17.75
2023-05-08T18:42:58.738Z,17.63
2023-05-08T18:45:30.209Z,17.54
2023-05-08T18:48:01.568Z,17.44
2023-05-08T18:50:32.918Z,17.26
2023-05-08T18:53:04.282Z,17.22
2023-05-08T18:55:36.140Z,17.11
2023-05-08T18:58:07.496Z,16.98
2023-05-08T19:00:38.862Z,16.86
2023-05-08T19:03:10.422Z,16.80
2023-05-08T19:05:42.015Z,16.71
2023-05-08T19:08:15.468Z,16.62
2023-05-08T19:10:46.825Z,16.52
2023-05-08T19:13:18.375Z,16.32
2023-05-08T19:15:49.939Z,16.38
2023-05-08T19:18:21.717Z,16.30
2023-05-08T19:20:53.338Z,16.21
2023-05-08T19:23:24.626Z,16.14
2023-05-08T19:25:55.996Z,16.06
2023-05-08T19:28:29.536Z,15.98
2023-05-08T19:31:01.067Z,15.83
2023-05-08T19:33:32.432Z,15.85
2023-05-08T19:36:03.718Z,15.81
2023-05-08T19:38:37.022Z,15.62
2023-05-08T19:41:08.321Z,15.74
2023-05-08T19:43:39.659Z,15.71
2023-05-08T19:46:11.001Z,15.58
2023-05-08T19:48:42.507Z,15.55
2023-05-08T19:51:16.130Z,15.59
2023-05-08T19:53:47.537Z,15.51
2023-05-08T19:56:18.880Z,15.46
2023-05-08T19:58:50.158Z,15.40
2023-05-08T20:01:21.469Z,15.36
2023-05-08T20:03:53.013Z,15.35
2023-05-08T20:06:24.337Z,15.33
2023-05-08T20:08:55.735Z,15.29
2023-05-08T20:11:27.117Z,15.27
2023-05-08T20:13:58.612Z,15.24
2023-05-08T20:16:30.014Z,15.00
2023-05-08T20:19:01.711Z,15.21
2023-05-08T20:21:33.928Z,15.18
2023-05-08T20:24:05.776Z,15.13
2023-05-08T20:26:37.058Z,15.08
2023-05-08T20:29:09.499Z,15.04
2023-05-08T20:31:40.922Z,14.98
2023-05-08T20:34:12.604Z,14.95
2023-05-08T20:36:45.108Z,14.86
2023-05-08T20:39:16.546Z,14.80
2023-05-08T20:41:47.812Z,14.79
2023-05-08T20:44:19.233Z,14.73
2023-05-08T20:46:51.400Z,14.67
2023-05-08T20:49:22.765Z,14.50
2023-05-08T20:51:54.134Z,14.54
2023-05-08T20:54:25.428Z,14.36
2023-05-08T20:56:56.844Z,14.34
2023-05-08T20:59:28.117Z,14.23
2023-05-08T21:01:59.382Z,14.11
2023-05-08T21:04:31.081Z,14.00
2023-05-08T21:07:02.453Z,14.03
2023-05-08T21:09:33.919Z,13.94
2023-05-08T21:12:05.336Z,13.95
2023-05-08T21:14:37.221Z,13.91
2023-05-08T21:17:08.516Z,13.83
2023-05-08T21:19:39.953Z,13.80
2023-05-08T21:22:13.651Z,13.78
2023-05-08T21:24:44.941Z,13.61
2023-05-08T21:27:16.262Z,13.69
2023-05-08T21:29:47.618Z,13.64
2023-05-08T21:32:19.020Z,13.59
2023-05-08T21:34:50.295Z,13.54
2023-05-08T21:37:21.688Z,13.40
2023-05-08T21:39:54.155Z,13.47
2023-05-08T21:42:25.602Z,13.42
2023-05-08T21:44:57.673Z,13.39
2023-05-08T21:47:29.005Z,13.35
2023-05-08T21:50:00.371Z,13.34
2023-05-08T21:52:31.676Z,13.33
2023-05-08T21:55:08.274Z,13.32
2023-05-08T21:57:39.595Z,13.33
2023-05-08T22:00:11.399Z,13.33
2023-05-08T22:02:42.808Z,13.34
2023-05-08T22:05:14.549Z,13.37
2023-05-08T22:07:46.489Z,13.39
2023-05-08T22:10:17.883Z,13.37
2023-05-08T22:12:49.208Z,13.30
2023-05-08T22:15:29.594Z,13.43
2023-05-08T22:18:02.791Z,13.46
2023-05-08T22:20:34.505Z,13.47
2023-05-08T22:23:06.330Z,13.48
2023-05-08T22:25:37.777Z,13.46
2023-05-08T22:28:09.105Z,13.46
2023-05-08T22:30:40.573Z,13.45
2023-05-08T22:33:12.083Z,13.39
2023-05-08T22:35:43.386Z,13.49
2023-05-08T22:38:14.649Z,13.49
2023-05-08T22:40:47.618Z,13.41
2023-05-08T22:43:19.029Z,13.33
2023-05-08T22:45:50.417Z,13.38
2023-05-08T22:48:21.806Z,13.49
2023-05-08T22:50:53.125Z,13.34
2023-05-08T22:53:24.502Z,13.47
2023-05-08T22:55:55.880Z,13.40
2023-05-08T22:58:29.062Z,13.52
2023-05-08T23:01:00.491Z,13.50
2023-05-08T23:03:31.791Z,13.39
2023-05-08T23:06:03.149Z,13.39
2023-05-08T23:08:34.432Z,13.31
2023-05-08T23:11:05.747Z,13.27
2023-05-08T23:13:37.050Z,13.32
2023-05-08T23:16:08.448Z,13.27
2023-05-08T23:18:39.744Z,13.06
2023-05-08T23:21:11.146Z,13.19
2023-05-08T23:23:42.453Z,13.17
2023-05-08T23:26:14.048Z,13.07
2023-05-08T23:28:45.424Z,13.05
2023-05-08T23:31:16.787Z,13.14
2023-05-08T23:33:48.251Z,13.06
2023-05-08T23:36:19.596Z,13.08
2023-05-08T23:38:50.861Z,13.05
2023-05-08T23:41:22.131Z,12.93
2023-05-08T23:43:53.397Z,12.99
2023-05-08T23:46:24.664Z,12.95
2023-05-08T23:48:55.979Z,12.93
2023-05-08T23:51:27.264Z,12.82
2023-05-08T23:53:58.576Z,12.88
2023-05-08T23:56:30.698Z,12.81
2023-05-08T23:59:02.121Z,12.83
